createdAt,value
2019-05-30T00:00:10.287Z,0
2019-05-30T00:01:02.091Z,0
2019-05-30T00:02:02.599Z,0
2019-05-30T00:03:04.383Z,0
2019-05-30T00:04:05.405Z,0
2019-05-30T00:05:06.801Z,0
2019-05-30T00:06:08.261Z,0
2019-05-30T00:07:11.085Z,0
2019-05-30T00:08:11.141Z,0
2019-05-30T00:09:12.585Z,0
2019-05-30T00:10:14.365Z,0
2019-05-30T00:11:17.049Z,0
2019-05-30T00:12:18.788Z,0
2019-05-30T00:13:20.187Z,0
2019-05-30T00:14:21.630Z,0
2019-05-30T00:15:23.035Z,0
2019-05-30T00:16:24.507Z,0
2019-05-30T00:17:25.908Z,0
2019-05-30T00:18:27.397Z,0
2019-05-30T00:19:32.942Z,0
2019-05-30T00:20:30.844Z,0
2019-05-30T00:21:32.331Z,0
2019-05-30T00:22:33.739Z,0
2019-05-30T00:23:35.161Z,0
2019-05-30T00:24:37.029Z,0
2019-05-30T00:25:38.424Z,0
2019-05-30T00:26:39.983Z,0
2019-05-30T00:27:41.380Z,0
2019-05-30T00:28:42.786Z,0
2019-05-30T00:29:44.263Z,0
2019-05-30T00:30:45.665Z,0
2019-05-30T00:31:47.190Z,0
2019-05-30T00:32:48.590Z,0
2019-05-30T00:33:50.019Z,0
2019-05-30T00:34:51.417Z,0
2019-05-30T00:35:52.901Z,0
2019-05-30T00:36:55.562Z,0
2019-05-30T00:37:55.884Z,0
2019-05-30T00:38:57.677Z,0
2019-05-30T00:39:59.655Z,0
2019-05-30T00:41:00.208Z,0
2019-05-30T00:42:02.044Z,0
2019-05-30T00:43:04.088Z,0
2019-05-30T00:44:04.498Z,0
2019-05-30T00:45:18.631Z,0
2019-05-30T00:46:07.226Z,0
2019-05-30T00:47:09.873Z,0
2019-05-30T00:48:11.272Z,0
2019-05-30T00:49:12.670Z,0
2019-05-30T00:50:14.194Z,0
2019-05-30T00:51:15.602Z,0
2019-05-30T00:52:17.281Z,0
2019-05-30T00:53:18.677Z,0
2019-05-30T00:54:20.400Z,0
2019-05-30T00:55:21.803Z,0
2019-05-30T00:56:23.191Z,0
2019-05-30T00:57:25.272Z,0
2019-05-30T00:58:26.671Z,0
2019-05-30T00:59:28.089Z,0
2019-05-30T01:00:42.589Z,0
2019-05-30T01:01:30.989Z,0
2019-05-30T01:02:32.702Z,0
2019-05-30T01:03:34.119Z,0
2019-05-30T01:04:35.799Z,0
2019-05-30T01:05:37.194Z,0
2019-05-30T01:06:38.592Z,0
2019-05-30T01:07:41.143Z,0
2019-05-30T01:08:42.917Z,0
2019-05-30T01:09:44.316Z,0
2019-05-30T01:10:45.874Z,0
2019-05-30T01:11:47.273Z,0
2019-05-30T01:12:48.676Z,0
2019-05-30T01:13:50.396Z,0
2019-05-30T01:14:52.171Z,0
2019-05-30T01:15:53.589Z,0
2019-05-30T01:16:55.131Z,0
2019-05-30T01:17:56.957Z,0
2019-05-30T01:18:59.044Z,0
2019-05-30T01:20:00.951Z,0
2019-05-30T01:21:01.393Z,0
2019-05-30T01:22:03.423Z,0
2019-05-30T01:23:05.354Z,0
2019-05-30T01:24:05.806Z,0
2019-05-30T01:25:07.845Z,0
2019-05-30T01:26:08.630Z,0
2019-05-30T01:27:10.390Z,0
2019-05-30T01:28:11.814Z,0
2019-05-30T01:29:13.438Z,0
2019-05-30T01:30:14.833Z,0
2019-05-30T01:31:16.524Z,0
2019-05-30T01:32:18.304Z,0
2019-05-30T01:33:20.031Z,0
2019-05-30T01:34:21.417Z,0
2019-05-30T01:35:23.105Z,0
2019-05-30T01:36:24.502Z,0
2019-05-30T01:37:26.569Z,0
2019-05-30T01:38:27.967Z,0
2019-05-30T01:39:29.696Z,0
2019-05-30T01:40:31.189Z,0
2019-05-30T01:41:32.773Z,0
2019-05-30T01:42:34.177Z,0
2019-05-30T01:43:35.858Z,0
2019-05-30T01:44:37.255Z,0
2019-05-30T01:45:38.956Z,0
2019-05-30T01:46:40.358Z,0
2019-05-30T01:47:42.030Z,0
2019-05-30T01:48:43.430Z,0
2019-05-30T01:49:45.184Z,0
2019-05-30T01:50:46.584Z,0
2019-05-30T01:51:47.996Z,0
2019-05-30T01:52:49.642Z,0
2019-05-30T01:53:51.043Z,0
2019-05-30T01:54:52.445Z,0
2019-05-30T01:55:54.166Z,0
2019-05-30T01:56:55.569Z,0
2019-05-30T01:57:58.592Z,0
2019-05-30T01:58:58.713Z,0
2019-05-30T02:00:01.119Z,0
2019-05-30T02:01:17.194Z,0
2019-05-30T02:02:05.018Z,0
2019-05-30T02:03:05.618Z,0
2019-05-30T02:04:07.433Z,0
2019-05-30T02:05:09.433Z,0
2019-05-30T02:06:10.627Z,0
2019-05-30T02:07:12.025Z,0
2019-05-30T02:08:13.734Z,0
2019-05-30T02:09:15.138Z,0
2019-05-30T02:10:16.793Z,0
2019-05-30T02:11:18.199Z,0
2019-05-30T02:12:19.605Z,0
2019-05-30T02:13:21.330Z,0
2019-05-30T02:14:22.721Z,0
2019-05-30T02:15:24.117Z,0
2019-05-30T02:16:25.646Z,0
2019-05-30T02:17:27.047Z,0
2019-05-30T02:18:28.449Z,0
2019-05-30T02:19:30.544Z,0
2019-05-30T02:20:32.145Z,0
2019-05-30T02:21:33.545Z,0
2019-05-30T02:22:35.116Z,0
2019-05-30T02:23:36.507Z,0
2019-05-30T02:24:37.905Z,0
2019-05-30T02:25:39.639Z,0
2019-05-30T02:26:41.030Z,0
2019-05-30T02:27:42.429Z,0
2019-05-30T02:28:43.957Z,0
2019-05-30T02:29:45.358Z,0
2019-05-30T02:30:46.751Z,0
2019-05-30T02:31:48.477Z,0
2019-05-30T02:32:49.880Z,0
2019-05-30T02:33:51.275Z,0
2019-05-30T02:34:52.800Z,0
2019-05-30T02:35:54.195Z,0
2019-05-30T02:36:55.598Z,0
2019-05-30T02:37:57.137Z,0
2019-05-30T02:38:58.525Z,0
2019-05-30T02:40:02.901Z,0
2019-05-30T02:41:03.164Z,0
2019-05-30T02:42:03.224Z,0
2019-05-30T02:43:05.638Z,0
2019-05-30T02:44:07.455Z,0
2019-05-30T02:45:07.963Z,0
2019-05-30T02:46:09.999Z,0
2019-05-30T02:47:11.520Z,0
2019-05-30T02:48:12.199Z,0
2019-05-30T02:49:13.755Z,0
2019-05-30T02:50:14.737Z,0
2019-05-30T02:51:16.255Z,4
2019-05-30T02:52:17.657Z,4
2019-05-30T02:53:19.338Z,0
2019-05-30T02:54:20.776Z,0
2019-05-30T02:55:22.424Z,4
2019-05-30T02:56:23.824Z,4
2019-05-30T02:57:25.534Z,4
2019-05-30T02:58:26.932Z,4
2019-05-30T02:59:28.597Z,4
2019-05-30T03:00:30.031Z,4
2019-05-30T03:01:31.695Z,4
2019-05-30T03:02:33.118Z,8
2019-05-30T03:03:34.776Z,8
2019-05-30T03:04:36.171Z,8
2019-05-30T03:05:37.872Z,8
2019-05-30T03:06:39.250Z,8
2019-05-30T03:07:40.657Z,12
2019-05-30T03:08:42.206Z,12
2019-05-30T03:09:43.593Z,12
2019-05-30T03:10:44.992Z,12
2019-05-30T03:11:46.705Z,16
2019-05-30T03:12:48.112Z,16
2019-05-30T03:13:49.792Z,20
2019-05-30T03:14:51.194Z,20
2019-05-30T03:15:52.875Z,28
2019-05-30T03:16:54.281Z,32
2019-05-30T03:17:55.677Z,28
2019-05-30T03:18:57.201Z,32
2019-05-30T03:19:58.604Z,32
2019-05-30T03:21:00.002Z,36
2019-05-30T03:22:03.414Z,36
2019-05-30T03:23:05.122Z,40
2019-05-30T03:24:05.056Z,48
2019-05-30T03:25:09.539Z,52
2019-05-30T03:26:10.717Z,56
2019-05-30T03:27:11.322Z,60
2019-05-30T03:28:13.469Z,68
2019-05-30T03:29:14.105Z,68
2019-05-30T03:30:25.673Z,76
2019-05-30T03:31:27.427Z,80
2019-05-30T03:33:00.676Z,84
2019-05-30T03:33:35.548Z,92
2019-05-30T03:34:27.435Z,100
2019-05-30T03:35:28.851Z,112
2019-05-30T03:36:29.467Z,120
2019-05-30T03:37:29.360Z,128
2019-05-30T03:38:25.589Z,140
2019-05-30T03:39:26.992Z,144
2019-05-30T03:40:30.179Z,148
2019-05-30T03:41:30.086Z,156
2019-05-30T03:42:31.764Z,168
2019-05-30T03:43:33.173Z,180
2019-05-30T03:44:34.849Z,192
2019-05-30T03:45:36.256Z,204
2019-05-30T03:46:37.938Z,216
2019-05-30T03:47:39.333Z,236
2019-05-30T03:48:41.024Z,256
2019-05-30T03:49:42.425Z,284
2019-05-30T03:50:44.103Z,320
2019-05-30T03:51:45.508Z,348
2019-05-30T03:52:46.931Z,376
2019-05-30T03:53:48.631Z,400
2019-05-30T03:54:50.041Z,404
2019-05-30T03:55:51.538Z,396
2019-05-30T03:56:53.157Z,396
2019-05-30T03:57:54.590Z,388
2019-05-30T03:58:55.991Z,376
2019-05-30T03:59:57.713Z,360
2019-05-30T04:00:59.090Z,340
2019-05-30T04:02:00.488Z,312
2019-05-30T04:03:02.212Z,288
2019-05-30T04:04:04.022Z,264
2019-05-30T04:05:06.399Z,256
2019-05-30T04:06:09.702Z,244
2019-05-30T04:07:09.100Z,244
2019-05-30T04:08:11.945Z,252
2019-05-30T04:09:14.984Z,256
2019-05-30T04:10:13.507Z,260
2019-05-30T04:11:16.609Z,260
2019-05-30T04:12:16.713Z,260
2019-05-30T04:13:19.201Z,260
2019-05-30T04:14:19.438Z,260
2019-05-30T04:15:20.791Z,264
2019-05-30T04:16:22.382Z,268
2019-05-30T04:17:23.777Z,272
2019-05-30T04:18:25.177Z,276
2019-05-30T04:19:26.904Z,280
2019-05-30T04:20:28.311Z,284
2019-05-30T04:21:29.714Z,288
2019-05-30T04:22:31.425Z,292
2019-05-30T04:23:32.829Z,296
2019-05-30T04:24:34.512Z,304
2019-05-30T04:25:35.931Z,312
2019-05-30T04:26:37.595Z,328
2019-05-30T04:27:39.001Z,356
2019-05-30T04:28:41.066Z,392
2019-05-30T04:29:42.465Z,452
2019-05-30T04:30:44.179Z,512
2019-05-30T04:31:45.591Z,568
2019-05-30T04:32:46.993Z,600
2019-05-30T04:33:48.706Z,628
2019-05-30T04:34:50.107Z,640
2019-05-30T04:35:51.789Z,648
2019-05-30T04:36:53.818Z,652
2019-05-30T04:37:54.803Z,652
2019-05-30T04:38:56.210Z,652
2019-05-30T04:39:57.758Z,668
2019-05-30T04:40:59.171Z,688
2019-05-30T04:42:00.841Z,720
2019-05-30T04:43:02.270Z,756
2019-05-30T04:44:03.942Z,788
2019-05-30T04:45:05.328Z,832
2019-05-30T04:46:07.023Z,872
2019-05-30T04:47:09.882Z,904
2019-05-30T04:48:09.905Z,916
2019-05-30T04:49:12.378Z,928
2019-05-30T04:50:14.224Z,932
2019-05-30T04:51:14.570Z,932
2019-05-30T04:52:19.818Z,944
2019-05-30T04:53:18.286Z,964
2019-05-30T04:54:19.222Z,988
2019-05-30T04:55:22.331Z,1016
2019-05-30T04:56:22.001Z,1036
2019-05-30T04:57:26.823Z,1032
2019-05-30T04:58:24.564Z,1020
2019-05-30T04:59:25.979Z,1008
2019-05-30T05:00:27.383Z,996
2019-05-30T05:01:29.029Z,988
2019-05-30T05:02:30.430Z,988
2019-05-30T05:03:45.340Z,980
2019-05-30T05:04:33.762Z,964
2019-05-30T05:05:35.164Z,952
2019-05-30T05:06:36.577Z,968
2019-05-30T05:07:38.289Z,1016
2019-05-30T05:08:39.689Z,1052
2019-05-30T05:09:41.380Z,1084
2019-05-30T05:10:42.780Z,1096
2019-05-30T05:11:44.457Z,1112
2019-05-30T05:12:45.860Z,1148
2019-05-30T05:13:47.548Z,1196
2019-05-30T05:14:48.951Z,1184
2019-05-30T05:15:50.626Z,1148
2019-05-30T05:16:52.037Z,1072
2019-05-30T05:17:53.996Z,1012
2019-05-30T05:18:55.402Z,980
2019-05-30T05:19:57.008Z,1004
2019-05-30T05:20:58.411Z,1056
2019-05-30T05:22:00.109Z,1124
2019-05-30T05:23:01.525Z,1160
2019-05-30T05:24:03.187Z,1140
2019-05-30T05:25:04.589Z,1120
2019-05-30T05:26:06.644Z,1096
2019-05-30T05:27:09.854Z,1128
2019-05-30T05:28:09.548Z,1204
2019-05-30T05:29:10.954Z,1316
2019-05-30T05:30:13.878Z,1480
2019-05-30T05:31:14.433Z,1604
2019-05-30T05:32:16.115Z,1692
2019-05-30T05:33:16.886Z,1792
2019-05-30T05:34:18.784Z,1892
2019-05-30T05:35:20.900Z,1964
2019-05-30T05:36:22.976Z,1984
2019-05-30T05:37:23.362Z,1984
2019-05-30T05:38:24.811Z,2004
2019-05-30T05:39:26.221Z,2016
2019-05-30T05:40:28.505Z,2048
2019-05-30T05:41:29.235Z,2056
2019-05-30T05:42:30.958Z,2084
2019-05-30T05:43:32.366Z,2092
2019-05-30T05:44:34.058Z,2060
2019-05-30T05:45:35.472Z,1996
2019-05-30T05:46:37.117Z,1932
2019-05-30T05:47:38.803Z,1848
2019-05-30T05:48:40.412Z,1784
2019-05-30T05:49:42.200Z,1720
2019-05-30T05:50:43.601Z,1648
2019-05-30T05:51:45.139Z,1608
2019-05-30T05:52:46.544Z,1524
2019-05-30T05:53:47.947Z,1472
2019-05-30T05:54:49.458Z,1460
2019-05-30T05:55:50.868Z,1452
2019-05-30T05:56:52.548Z,1496
2019-05-30T05:57:53.955Z,1516
2019-05-30T05:58:55.379Z,1524
2019-05-30T05:59:57.098Z,1536
2019-05-30T06:00:58.602Z,1552
2019-05-30T06:02:00.106Z,1528
2019-05-30T06:03:01.839Z,1528
2019-05-30T06:04:12.684Z,1560
2019-05-30T06:05:04.614Z,1608
2019-05-30T06:06:06.127Z,1620
2019-05-30T06:07:07.530Z,1660
2019-05-30T06:08:08.938Z,1744
2019-05-30T06:09:10.656Z,1812
2019-05-30T06:10:12.446Z,1924
2019-05-30T06:11:14.164Z,1984
2019-05-30T06:12:15.575Z,2008
2019-05-30T06:13:17.235Z,2028
2019-05-30T06:14:19.729Z,2064
2019-05-30T06:15:20.723Z,2072
2019-05-30T06:16:22.007Z,1980
2019-05-30T06:17:23.080Z,1940
2019-05-30T06:18:24.619Z,1900
2019-05-30T06:19:27.475Z,1920
2019-05-30T06:20:28.111Z,1844
2019-05-30T06:21:29.518Z,1816
2019-05-30T06:22:31.223Z,1792
2019-05-30T06:23:32.627Z,1708
2019-05-30T06:24:34.034Z,1572
2019-05-30T06:25:35.576Z,1548
2019-05-30T06:26:36.956Z,1520
2019-05-30T06:27:38.363Z,1536
2019-05-30T06:28:40.074Z,1548
2019-05-30T06:29:41.481Z,1504
2019-05-30T06:30:42.883Z,1476
2019-05-30T06:31:44.390Z,1472
2019-05-30T06:32:45.803Z,1468
2019-05-30T06:33:47.211Z,1440
2019-05-30T06:34:48.921Z,1376
2019-05-30T06:35:50.350Z,1424
2019-05-30T06:36:52.003Z,1504
2019-05-30T06:37:53.409Z,1500
2019-05-30T06:38:55.089Z,1616
2019-05-30T06:39:56.499Z,1692
2019-05-30T06:40:58.181Z,1784
2019-05-30T06:41:59.589Z,1932
2019-05-30T06:43:01.261Z,1884
2019-05-30T06:44:05.602Z,1940
2019-05-30T06:45:04.075Z,1948
2019-05-30T06:46:05.785Z,1996
2019-05-30T06:47:07.191Z,2064
2019-05-30T06:48:08.606Z,2024
2019-05-30T06:49:10.305Z,2120
2019-05-30T06:50:11.667Z,2052
2019-05-30T06:51:14.651Z,1996
2019-05-30T06:52:15.061Z,2048
2019-05-30T06:53:16.459Z,2160
2019-05-30T06:54:17.863Z,2180
2019-05-30T06:55:19.880Z,2140
2019-05-30T06:56:21.190Z,2036
2019-05-30T06:57:23.134Z,1952
2019-05-30T06:58:38.856Z,1900
2019-05-30T06:59:25.554Z,1952
2019-05-30T07:00:27.985Z,2036
2019-05-30T07:01:28.145Z,1992
2019-05-30T07:02:30.462Z,2020
2019-05-30T07:03:31.100Z,2244
2019-05-30T07:04:50.433Z,2356
2019-05-30T07:05:34.585Z,2304
2019-05-30T07:06:35.711Z,2272
2019-05-30T07:07:36.955Z,2280
2019-05-30T07:08:38.301Z,2320
2019-05-30T07:09:39.700Z,2268
2019-05-30T07:10:41.396Z,2180
2019-05-30T07:11:42.786Z,2376
2019-05-30T07:12:44.470Z,2444
2019-05-30T07:13:45.872Z,2448
2019-05-30T07:14:47.554Z,2636
2019-05-30T07:15:48.972Z,2664
2019-05-30T07:16:50.379Z,3084
2019-05-30T07:17:52.078Z,3044
2019-05-30T07:18:53.483Z,3236
2019-05-30T07:19:54.889Z,3300
2019-05-30T07:20:56.404Z,3212
2019-05-30T07:21:57.898Z,3496
2019-05-30T07:22:59.863Z,3664
2019-05-30T07:24:01.275Z,3224
2019-05-30T07:25:03.027Z,2928
2019-05-30T07:26:04.405Z,2928
2019-05-30T07:27:06.070Z,2484
2019-05-30T07:28:07.472Z,2424
2019-05-30T07:29:09.156Z,2592
2019-05-30T07:30:10.556Z,2292
2019-05-30T07:31:11.962Z,2252
2019-05-30T07:32:13.637Z,2020
2019-05-30T07:33:14.841Z,2168
2019-05-30T07:34:16.267Z,2004
2019-05-30T07:35:17.798Z,2016
2019-05-30T07:36:19.195Z,2192
2019-05-30T07:37:20.886Z,2192
2019-05-30T07:38:22.355Z,1952
2019-05-30T07:39:26.399Z,2004
2019-05-30T07:40:26.487Z,2168
2019-05-30T07:41:26.981Z,2284
2019-05-30T07:42:28.689Z,2388
2019-05-30T07:43:30.702Z,2504
2019-05-30T07:44:31.028Z,2384
2019-05-30T07:45:33.153Z,2376
2019-05-30T07:46:35.062Z,2436
2019-05-30T07:47:35.706Z,2656
2019-05-30T07:48:37.101Z,2568
2019-05-30T07:49:38.847Z,2684
2019-05-30T07:50:40.213Z,2700
2019-05-30T07:51:41.639Z,3360
2019-05-30T07:52:43.311Z,3580
2019-05-30T07:53:44.721Z,3356
2019-05-30T07:54:46.131Z,2972
2019-05-30T07:55:47.844Z,3236
2019-05-30T07:56:49.269Z,3436
2019-05-30T07:57:50.693Z,3204
2019-05-30T07:58:52.384Z,2832
2019-05-30T07:59:53.837Z,3184
2019-05-30T08:00:55.254Z,3500
2019-05-30T08:01:56.921Z,3264
2019-05-30T08:02:58.332Z,3308
2019-05-30T08:03:59.732Z,2996
2019-05-30T08:05:01.413Z,2756
2019-05-30T08:06:02.819Z,2272
2019-05-30T08:07:04.228Z,2140
2019-05-30T08:08:05.938Z,2260
2019-05-30T08:09:07.347Z,2604
2019-05-30T08:10:08.752Z,2508
2019-05-30T08:11:10.425Z,2452
2019-05-30T08:12:11.626Z,2792
2019-05-30T08:13:13.046Z,2872
2019-05-30T08:14:14.580Z,2948
2019-05-30T08:15:15.984Z,2848
2019-05-30T08:16:17.386Z,2836
2019-05-30T08:17:18.903Z,3000
2019-05-30T08:18:20.335Z,3076
2019-05-30T08:19:22.003Z,3024
2019-05-30T08:20:23.415Z,2764
2019-05-30T08:21:24.827Z,3076
2019-05-30T08:22:27.882Z,3312
2019-05-30T08:23:28.055Z,3660
2019-05-30T08:24:30.165Z,3680
2019-05-30T08:25:32.133Z,4156
2019-05-30T08:26:32.208Z,3488
2019-05-30T08:27:34.293Z,3304
2019-05-30T08:28:36.300Z,3052
2019-05-30T08:29:36.538Z,2720
2019-05-30T08:30:38.631Z,3060
2019-05-30T08:31:39.490Z,2912
2019-05-30T08:32:40.887Z,3244
2019-05-30T08:33:42.295Z,3104
2019-05-30T08:34:43.799Z,3104
2019-05-30T08:35:49.930Z,3816
2019-05-30T08:36:46.577Z,3560
2019-05-30T08:37:48.121Z,3008
2019-05-30T08:38:49.523Z,2748
2019-05-30T08:39:51.239Z,2964
2019-05-30T08:40:53.286Z,3424
2019-05-30T08:41:56.106Z,3976
2019-05-30T08:42:58.081Z,3740
2019-05-30T08:44:00.288Z,3904
2019-05-30T08:45:02.277Z,4172
2019-05-30T08:46:03.678Z,4628
2019-05-30T08:47:05.187Z,3856
2019-05-30T08:48:06.590Z,3432
2019-05-30T08:49:08.370Z,4212
2019-05-30T08:50:09.913Z,4716
2019-05-30T08:51:11.324Z,4888
2019-05-30T08:52:12.738Z,6000
2019-05-30T08:53:14.443Z,7128
2019-05-30T08:54:15.852Z,6832
2019-05-30T08:55:17.523Z,4540
2019-05-30T08:56:18.931Z,4600
2019-05-30T08:57:20.356Z,4540
2019-05-30T08:58:21.858Z,4828
2019-05-30T08:59:23.265Z,4780
2019-05-30T09:00:24.675Z,5220
2019-05-30T09:01:26.371Z,4964
2019-05-30T09:02:27.777Z,4368
2019-05-30T09:03:29.207Z,5456
2019-05-30T09:04:30.913Z,4912
2019-05-30T09:05:32.338Z,4596
2019-05-30T09:06:34.102Z,4784
2019-05-30T09:07:36.393Z,4840
2019-05-30T09:08:37.945Z,5188
2019-05-30T09:09:38.532Z,4876
2019-05-30T09:10:40.708Z,4680
2019-05-30T09:11:42.251Z,5340
2019-05-30T09:12:45.581Z,5444
2019-05-30T09:13:44.576Z,4708
2019-05-30T09:14:46.929Z,4564
2019-05-30T09:15:47.359Z,4100
2019-05-30T09:16:49.582Z,3828
2019-05-30T09:17:50.232Z,3580
2019-05-30T09:18:51.651Z,3452
2019-05-30T09:19:53.326Z,3336
2019-05-30T09:20:54.731Z,3388
2019-05-30T09:21:56.143Z,3600
2019-05-30T09:22:57.849Z,4048
2019-05-30T09:24:01.365Z,4936
2019-05-30T09:25:00.626Z,4308
2019-05-30T09:26:02.194Z,4348
2019-05-30T09:27:03.590Z,4592
2019-05-30T09:28:05.257Z,4644
2019-05-30T09:29:06.670Z,5144
2019-05-30T09:30:08.344Z,4724
2019-05-30T09:31:09.768Z,4608
2019-05-30T09:32:11.183Z,4972
2019-05-30T09:33:12.895Z,4948
2019-05-30T09:34:14.279Z,3720
2019-05-30T09:35:15.705Z,3400
2019-05-30T09:36:17.196Z,3120
2019-05-30T09:37:18.603Z,2924
2019-05-30T09:38:20.399Z,3404
2019-05-30T09:39:21.926Z,4268
2019-05-30T09:40:23.332Z,4188
2019-05-30T09:41:24.740Z,4068
2019-05-30T09:42:26.270Z,4212
2019-05-30T09:43:27.664Z,4476
2019-05-30T09:44:29.073Z,4116
2019-05-30T09:45:30.769Z,3660
2019-05-30T09:46:32.176Z,3248
2019-05-30T09:47:33.606Z,3112
2019-05-30T09:48:35.295Z,3188
2019-05-30T09:49:36.739Z,3692
2019-05-30T09:50:38.115Z,3468
2019-05-30T09:51:40.566Z,3624
2019-05-30T09:52:42.186Z,3976
2019-05-30T09:53:43.795Z,4440
2019-05-30T09:54:44.367Z,4620
2019-05-30T09:55:46.212Z,4600
2019-05-30T09:56:48.462Z,4640
2019-05-30T09:57:49.529Z,4244
2019-05-30T09:58:50.044Z,4208
2019-05-30T09:59:52.215Z,3588
2019-05-30T10:00:52.992Z,3328
2019-05-30T10:01:54.386Z,3036
2019-05-30T10:02:55.822Z,2852
2019-05-30T10:03:57.543Z,2976
2019-05-30T10:04:58.952Z,2884
2019-05-30T10:06:00.600Z,2596
2019-05-30T10:07:02.009Z,2392
2019-05-30T10:08:03.416Z,2348
2019-05-30T10:09:04.936Z,2400
2019-05-30T10:10:06.344Z,2476
2019-05-30T10:11:07.750Z,2564
2019-05-30T10:12:09.450Z,2820
2019-05-30T10:13:10.856Z,2940
2019-05-30T10:14:12.537Z,2784
2019-05-30T10:15:13.945Z,2960
2019-05-30T10:16:15.641Z,3236
2019-05-30T10:17:17.048Z,3252
2019-05-30T10:18:18.459Z,3176
2019-05-30T10:19:20.148Z,2872
2019-05-30T10:20:21.576Z,2528
2019-05-30T10:21:22.971Z,2404
2019-05-30T10:22:24.487Z,2284
2019-05-30T10:23:25.893Z,2532
2019-05-30T10:24:27.555Z,2788
2019-05-30T10:25:29.376Z,2684
2019-05-30T10:26:31.050Z,3048
2019-05-30T10:27:32.462Z,3436
2019-05-30T10:28:34.136Z,3280
2019-05-30T10:29:35.545Z,3108
2019-05-30T10:30:37.221Z,3352
2019-05-30T10:31:38.709Z,3372
2019-05-30T10:32:40.118Z,3068
2019-05-30T10:33:41.746Z,3104
2019-05-30T10:34:43.164Z,3520
2019-05-30T10:35:45.642Z,3848
2019-05-30T10:36:47.356Z,3372
2019-05-30T10:37:48.891Z,3112
2019-05-30T10:38:50.013Z,3252
2019-05-30T10:39:50.937Z,3152
2019-05-30T10:40:52.320Z,3216
2019-05-30T10:41:53.200Z,2968
2019-05-30T10:42:55.155Z,2896
2019-05-30T10:43:57.249Z,2988
2019-05-30T10:44:57.593Z,2920
2019-05-30T10:45:59.000Z,2972
2019-05-30T10:47:00.681Z,3160
2019-05-30T10:48:02.107Z,2860
2019-05-30T10:49:03.497Z,2672
2019-05-30T10:50:05.003Z,2688
2019-05-30T10:51:06.442Z,2932
2019-05-30T10:52:07.829Z,3088
2019-05-30T10:53:09.547Z,3324
2019-05-30T10:54:10.973Z,3088
2019-05-30T10:55:12.408Z,3356
2019-05-30T10:56:13.818Z,3420
2019-05-30T10:57:15.525Z,2908
2019-05-30T10:58:16.984Z,2920
2019-05-30T10:59:18.583Z,2676
2019-05-30T11:00:19.987Z,2548
2019-05-30T11:01:21.668Z,2716
2019-05-30T11:02:23.466Z,2476
2019-05-30T11:03:25.161Z,2128
2019-05-30T11:04:26.586Z,2264
2019-05-30T11:05:28.302Z,2464
2019-05-30T11:06:29.704Z,2072
2019-05-30T11:07:31.331Z,2576
2019-05-30T11:08:32.739Z,2496
2019-05-30T11:09:34.172Z,2536
2019-05-30T11:10:35.857Z,2496
2019-05-30T11:11:37.267Z,2752
2019-05-30T11:12:38.683Z,2848
2019-05-30T11:13:40.179Z,2672
2019-05-30T11:14:41.635Z,2904
2019-05-30T11:15:43.058Z,3176
2019-05-30T11:16:44.469Z,3036
2019-05-30T11:17:47.254Z,2764
2019-05-30T11:18:48.835Z,2776
2019-05-30T11:19:49.880Z,2704
2019-05-30T11:20:52.219Z,3100
2019-05-30T11:21:52.697Z,3084
2019-05-30T11:22:54.481Z,3008
2019-05-30T11:23:54.834Z,2880
2019-05-30T11:24:56.806Z,3072
2019-05-30T11:25:58.777Z,4140
2019-05-30T11:26:59.255Z,3752
2019-05-30T11:28:00.973Z,3228
2019-05-30T11:29:02.388Z,3456
2019-05-30T11:30:04.080Z,4144
2019-05-30T11:31:07.324Z,4608
2019-05-30T11:32:09.166Z,5028
2019-05-30T11:33:10.652Z,6096
2019-05-30T11:34:12.044Z,4104
2019-05-30T11:35:14.194Z,4928
2019-05-30T11:36:15.620Z,5392
2019-05-30T11:37:18.700Z,5800
2019-05-30T11:38:18.650Z,5732
2019-05-30T11:39:21.904Z,5636
2019-05-30T11:40:23.365Z,5224
2019-05-30T11:41:24.772Z,5484
2019-05-30T11:42:26.457Z,5692
2019-05-30T11:43:27.860Z,4432
2019-05-30T11:44:29.278Z,4728
2019-05-30T11:45:30.784Z,5724
2019-05-30T11:46:32.189Z,5024
2019-05-30T11:47:33.606Z,3308
2019-05-30T11:48:35.352Z,2600
2019-05-30T11:49:37.242Z,4012
2019-05-30T11:50:38.652Z,4660
2019-05-30T11:51:40.234Z,3848
2019-05-30T11:52:41.641Z,3524
2019-05-30T11:53:43.049Z,3208
2019-05-30T11:54:44.558Z,4712
2019-05-30T11:55:45.964Z,5820
2019-05-30T11:56:47.372Z,5600
2019-05-30T11:57:49.996Z,3476
2019-05-30T11:58:50.252Z,3784
2019-05-30T11:59:52.158Z,4384
2019-05-30T12:00:54.643Z,5312
2019-05-30T12:01:54.795Z,4796
2019-05-30T12:02:56.516Z,3580
2019-05-30T12:03:58.646Z,4592
2019-05-30T12:04:59.103Z,4868
2019-05-30T12:06:00.812Z,6108
2019-05-30T12:07:02.056Z,5048
2019-05-30T12:08:03.460Z,5656
2019-05-30T12:09:06.710Z,5580
2019-05-30T12:10:08.210Z,3904
2019-05-30T12:11:09.634Z,4496
2019-05-30T12:12:11.091Z,3384
2019-05-30T12:13:12.508Z,3292
2019-05-30T12:14:14.187Z,3140
2019-05-30T12:15:15.597Z,3468
2019-05-30T12:16:17.261Z,2824
2019-05-30T12:17:18.671Z,3052
2019-05-30T12:18:20.354Z,1644
2019-05-30T12:19:21.759Z,1600
2019-05-30T12:20:23.435Z,2128
2019-05-30T12:21:24.843Z,2016
2019-05-30T12:22:26.519Z,2056
2019-05-30T12:23:27.921Z,1744
2019-05-30T12:24:29.605Z,1608
2019-05-30T12:25:31.015Z,1612
2019-05-30T12:26:33.938Z,1756
2019-05-30T12:27:34.119Z,1740
2019-05-30T12:28:35.775Z,1732
2019-05-30T12:29:37.181Z,1544
2019-05-30T12:30:54.352Z,1652
2019-05-30T12:31:40.243Z,1512
2019-05-30T12:32:41.744Z,1332
2019-05-30T12:33:43.144Z,1208
2019-05-30T12:34:44.828Z,1128
2019-05-30T12:35:46.616Z,1032
2019-05-30T12:36:48.127Z,1024
2019-05-30T12:37:54.674Z,1272
2019-05-30T12:38:52.152Z,1692
2019-05-30T12:39:52.467Z,2024
2019-05-30T12:40:54.660Z,2036
2019-05-30T12:41:56.786Z,1908
2019-05-30T12:42:59.228Z,1908
2019-05-30T12:43:59.147Z,1980
2019-05-30T12:45:03.551Z,1900
2019-05-30T12:46:01.429Z,1872
2019-05-30T12:47:03.479Z,1792
2019-05-30T12:48:04.401Z,1916
2019-05-30T12:49:05.689Z,1980
2019-05-30T12:50:07.255Z,1944
2019-05-30T12:51:09.065Z,1804
2019-05-30T12:52:10.469Z,1836
2019-05-30T12:53:11.997Z,1840
2019-05-30T12:54:13.401Z,1696
2019-05-30T12:55:15.737Z,1664
2019-05-30T12:56:17.338Z,1544
2019-05-30T12:57:19.179Z,1396
2019-05-30T12:58:20.597Z,1444
2019-05-30T12:59:22.268Z,1480
2019-05-30T13:00:23.683Z,1328
2019-05-30T13:01:27.390Z,1296
2019-05-30T13:02:26.766Z,1420
2019-05-30T13:03:28.461Z,1252
2019-05-30T13:04:29.869Z,1244
2019-05-30T13:05:31.534Z,1296
2019-05-30T13:06:32.952Z,1316
2019-05-30T13:07:34.632Z,1260
2019-05-30T13:08:36.042Z,1272
2019-05-30T13:09:37.741Z,1344
2019-05-30T13:10:39.174Z,1364
2019-05-30T13:11:40.808Z,1476
2019-05-30T13:12:42.243Z,1420
2019-05-30T13:13:43.883Z,1420
2019-05-30T13:14:45.299Z,1496
2019-05-30T13:15:46.717Z,1692
2019-05-30T13:16:48.411Z,1632
2019-05-30T13:17:49.819Z,1768
2019-05-30T13:18:51.243Z,1876
2019-05-30T13:19:52.935Z,2024
2019-05-30T13:20:54.401Z,2384
2019-05-30T13:21:57.038Z,2500
2019-05-30T13:22:58.407Z,2132
2019-05-30T13:23:59.582Z,1936
2019-05-30T13:25:01.796Z,1972
2019-05-30T13:26:02.031Z,1868
2019-05-30T13:27:03.884Z,1876
2019-05-30T13:28:07.163Z,1972
2019-05-30T13:29:06.481Z,2100
2019-05-30T13:30:07.747Z,1996
2019-05-30T13:31:09.169Z,1880
2019-05-30T13:32:10.829Z,1684
2019-05-30T13:33:12.239Z,1692
2019-05-30T13:34:13.922Z,1796
2019-05-30T13:35:15.342Z,1792
2019-05-30T13:36:16.771Z,1872
2019-05-30T13:37:18.489Z,1976
2019-05-30T13:38:26.539Z,1932
2019-05-30T13:39:21.278Z,1972
2019-05-30T13:40:25.401Z,1644
2019-05-30T13:41:24.351Z,1676
2019-05-30T13:42:26.062Z,1868
2019-05-30T13:43:28.026Z,1884
2019-05-30T13:44:29.144Z,1712
2019-05-30T13:45:30.597Z,1632
2019-05-30T13:46:31.986Z,1796
2019-05-30T13:47:34.058Z,1812
2019-05-30T13:48:35.485Z,1728
2019-05-30T13:49:36.894Z,1744
2019-05-30T13:50:38.386Z,1552
2019-05-30T13:51:39.806Z,1608
2019-05-30T13:52:41.598Z,1448
2019-05-30T13:53:43.126Z,1424
2019-05-30T13:54:44.539Z,1304
2019-05-30T13:55:46.931Z,1240
2019-05-30T13:56:48.489Z,1164
2019-05-30T13:57:49.898Z,1264
2019-05-30T13:58:51.318Z,1368
2019-05-30T13:59:53.034Z,1512
2019-05-30T14:00:54.447Z,1520
2019-05-30T14:01:56.091Z,1676